Station KNXA2 - Kenai, AK Image indicating link to RSS feed of recent meteorological observations for station KNXA2


Conditions at KNXA2 as of
(3:44 pm AKDT)
2344 GMT on 05/19/2024:
     

Click on the graph icon in the table below to see a time series plot of the last five days of that observation.

5-day plot - Wind Direction Wind Direction (WDIR): N ( 360 deg true )
5-day plot - Wind Speed Wind Speed (WSPD): 9 kts
5-day plot - Wind Gust Wind Gust (GST): 17 kts
5-day plot - Air Temperature Air Temperature (ATMP): 52.0 °F
5-day plot - Dew Point Dew Point (DEWP): 37.4 °F
5-day plot - Wind Chill Wind Chill (CHILL): 48.4 °F
5-day plot - Wind Speed at 10 Meters Wind Speed at 10 meters (WSPD10M): 10 kts
5-day plot - Wind Speed at 20 Meters Wind Speed at 20 meters (WSPD20M): 10 kts
5-day plot -  Wind Speed, Wind Gust and Atmospheric Pressure Combined plot of Wind Speed, Gust, and Air Pressure
Previous observations
TIME
(AKDT)
5-day plot - Wind Direction
WDIR
 
5-day plot - Wind Speed
WSPD
kts
5-day plot - Wind Gust
GST
kts
5-day plot - Wave Height
WVHT
ft
5-day plot - Dominant Wave Period
DPD
sec
5-day plot - Average Wave Period
APD
sec
5-day plot - Mean Wave Direction
MWD
 
5-day plot - Atmospheric Pressure
PRES
in
5-day plot - Pressure Tendency
PTDY
in
5-day plot - Air Temperature
ATMP
°F
5-day plot - Water Temperature
WTMP
°F
5-day plot - Dew Point
DEWP
°F
5-day plot - Salinity
SAL
psu
5-day plot - Visibility
VIS
nmi
5-day plot - Tide (above MLLW)
TIDE
ft
2024-05-19 03:24 pm N 10 21------ 51.6- 37.8---
2024-05-19 03:04 pm N 11 21------ 51.8- 37.9---
2024-05-19 02:54 pm N 13 26------ 52.3- 37.9---
2024-05-19 02:45 pm N 11 20------ 53.2- 38.1---
2024-05-19 02:35 pm N 11 22------ 54.3- 38.8---
2024-05-19 02:24 pm N 11 20------ 53.6- 38.7---
2024-05-19 02:14 pmNNW 11 20------ 52.7- 38.3---
2024-05-19 02:04 pm N 12 22------ 52.2- 38.7---
2024-05-19 01:44 pm N 12 21------ 52.5- 39.4---
2024-05-19 01:35 pm N 12 22------ 52.7- 39.4---
2024-05-19 01:24 pm N 11 23------ 51.8- 39.2---
2024-05-19 01:14 pm N 12 28------ 51.6- 39.4---
2024-05-19 01:04 pm N 13 24------ 51.4- 39.0---
2024-05-19 12:54 pm N 12 22------ 51.8- 39.2---
2024-05-19 12:45 pm N 13 27------ 52.0- 39.0---
2024-05-19 12:34 pm N 13 22------ 52.0- 38.8---
2024-05-19 12:24 pm N 12 22------ 51.6- 38.7---
2024-05-19 12:14 pm N 11 20------ 51.4- 38.5---
2024-05-19 12:05 pm N 13 26------ 51.4- 38.5---
2024-05-19 11:55 am N 13 23------ 51.4- 38.7---
2024-05-19 11:44 am N 12 24------ 50.5- 38.5---
2024-05-19 11:24 am N 12 19------ 50.7- 38.1---
2024-05-19 11:04 amNNE 13 21------ 49.8- 38.5---
2024-05-19 10:44 am N 14 24------ 48.2- 38.5---
2024-05-19 10:34 am N 11 26------ 48.2- 38.7---
2024-05-19 10:24 am N 10 23------ 47.8- 38.5---
2024-05-19 10:14 am N 10 22------ 47.5- 38.3---
2024-05-19 10:04 am N 11 24------ 47.1- 38.1---
2024-05-19 09:54 am N 11 22------ 47.1- 38.3---
2024-05-19 09:44 am N 12 28------ 46.8- 38.1---
2024-05-19 09:34 am N 11 23------ 46.6- 38.3---
2024-05-19 09:25 am N 10 19------ 46.4- 38.3---
2024-05-19 09:15 am N 8 18------ 46.0- 38.3---
2024-05-19 09:04 am N 8 18------ 45.9- 38.3---
2024-05-19 08:55 am N 11 24------ 45.7- 38.1---
2024-05-19 08:45 am N 10 21------ 45.7- 38.3---
2024-05-19 08:35 am N 12 27------ 45.7- 38.5---
2024-05-19 08:25 am N 13 24------ 45.3- 38.1---
2024-05-19 08:14 am N 9 21------ 45.1- 37.9---
2024-05-19 08:05 am N 9 21------ 45.1- 37.9---
2024-05-19 07:54 am N 10 22------ 45.0- 37.8---
2024-05-19 07:44 am N 10 20------ 44.8- 37.8---
2024-05-19 07:34 am N 10 21------ 44.8- 37.8---
2024-05-19 07:24 am N 8 16------ 44.4- 37.9---
2024-05-19 07:14 am N 8 16------ 44.4- 37.9---
2024-05-19 07:04 am N 8 14------ 44.2- 37.9---
2024-05-19 06:54 am N 8 15------ 44.1- 37.9---
2024-05-19 06:44 am N 7 14------ 44.1- 37.6---
2024-05-19 06:34 am N 8 15------ 43.9- 37.8---
2024-05-19 06:24 am N 7 15------ 43.7- 37.6---
2024-05-19 06:14 am N 9 17------ 43.7- 37.6---
2024-05-19 06:04 am N 8 13------ 43.9- 37.8---
2024-05-19 05:54 am N 7 15------ 44.4- 37.8---
2024-05-19 05:44 am N 8 16------ 44.6- 37.8---
2024-05-19 05:24 am N 10 22------ 44.4- 37.6---
2024-05-19 05:04 am N 9 17------ 44.4- 37.6---
2024-05-19 04:54 am N 10 20------ 44.8- 37.4---
2024-05-19 04:44 am N 9 16------ 45.9- 35.6---
2024-05-19 04:34 am N 7 15------ 45.9- 35.1---
2024-05-19 04:24 amNNE 7 12------ 45.9- 35.1---
2024-05-19 04:14 amNNE 8 14------ 45.9- 35.4---
2024-05-19 04:04 amNNE 7 12------ 45.9- 35.6---
2024-05-19 03:54 am NE 8 12------ 45.7- 35.4---
2024-05-19 03:44 amNNE 7 12------ 45.5- 35.6---
2024-05-19 03:34 amNNE 8 13------ 45.3- 35.8---
2024-05-19 03:24 am N 8 13------ 45.1- 36.0---
2024-05-19 03:14 am N 7 13------ 45.0- 36.0---
2024-05-19 03:04 am N 6 12------ 45.0- 36.1---
2024-05-19 02:54 amNNE 7 12------ 45.1- 36.0---
2024-05-19 02:44 amNNE 8 14------ 45.1- 35.8---
2024-05-19 02:34 amNNE 10 16------ 45.1- 35.8---
2024-05-19 02:25 amNNE 8 17------ 45.3- 35.8---
2024-05-19 02:14 amNNE 8 14------ 45.3- 35.8---
2024-05-19 02:04 am N 8 14------ 45.3- 36.1---
2024-05-19 01:54 amNNE 9 16------ 45.7- 36.1---
2024-05-19 01:34 amNNE 8 15------ 45.7- 36.0---
2024-05-19 01:24 amNNE 8 17------ 45.7- 36.1---
2024-05-19 01:14 am N 8 13------ 45.9- 36.1---
2024-05-19 01:04 amNNE 8 15------ 46.0- 36.1---
2024-05-19 12:54 am N 8 15------ 45.9- 36.5---
2024-05-19 12:44 am N 8 13------ 45.5- 36.7---
2024-05-19 12:34 am N 7 11------ 45.5- 36.7---
2024-05-19 12:25 amNNE 7 11------ 45.7- 36.7---
2024-05-19 12:16 amNNE 7 12------ 45.7- 36.5---
2024-05-19 12:05 amNNE 8 12------ 45.9- 36.7---
2024-05-18 11:54 pmNNE 7 11------ 45.9- 36.7---
2024-05-18 11:44 pmNNE 6 9------ 46.0- 36.9---
2024-05-18 11:34 pm NE 6 10------ 46.4- 36.9---
2024-05-18 11:24 pm NE 7 11------ 46.4- 36.9---
2024-05-18 11:14 pm NE 7 12------ 46.6- 36.9---
2024-05-18 11:04 pm NE 8 12------ 46.6- 36.9---
2024-05-18 10:54 pm NE 8 13------ 46.8- 36.9---
2024-05-18 10:44 pm NE 8 15------ 46.8- 37.0---
2024-05-18 10:34 pm NE 8 12------ 46.8- 37.4---
2024-05-18 10:24 pmNNE 6 10------ 46.8- 37.8---
2024-05-18 10:14 pm NE 6 9------ 47.1- 37.8---
2024-05-18 10:04 pm NE 7 13------ 47.5- 37.4---
2024-05-18 09:54 pm NE 7 12------ 47.8- 37.2---
2024-05-18 09:44 pm NE 7 13------ 48.4- 36.7---
2024-05-18 09:34 pm NE 8 13------ 48.6- 36.3---
2024-05-18 09:25 pm NE 8 14------ 48.7- 36.3---
2024-05-18 09:14 pm NE 9 16------ 48.7- 36.3---
2024-05-18 09:04 pm NE 9 15------ 48.9- 36.3---
2024-05-18 08:55 pm NE 9 16------ 48.9- 36.1---
2024-05-18 08:45 pmENE 10 15------ 48.9- 36.1---
2024-05-18 08:34 pm NE 11 18------ 49.1- 36.1---
2024-05-18 08:25 pmENE 11 21------ 49.1- 36.1---
2024-05-18 08:15 pmENE 13 21------ 49.3- 35.8---
2024-05-18 08:04 pmENE 12 18------ 49.3- 35.8---
2024-05-18 07:54 pmENE 12 18------ 49.5- 35.8---
2024-05-18 07:44 pmENE 12 19------ 49.6- 35.8---
2024-05-18 07:34 pmENE 12 19------ 49.6- 35.8---
2024-05-18 07:24 pmENE 13 21------ 49.6- 35.8---
2024-05-18 07:14 pmENE 12 20------ 49.6- 35.8---
2024-05-18 07:04 pmENE 14 21------ 49.5- 35.8---
2024-05-18 06:54 pmENE 13 22------ 49.5- 35.8---
2024-05-18 06:44 pmENE 13 23------ 49.5- 36.0---
2024-05-18 06:34 pmENE 15 22------ 49.5- 35.8---
2024-05-18 06:24 pmENE 13 20------ 49.6- 35.6---
2024-05-18 06:05 pmENE 12 20------ 49.8- 35.6---
2024-05-18 05:54 pmENE 9 20------ 50.0- 35.6---
2024-05-18 05:44 pmENE 12 19------ 49.8- 35.6---
2024-05-18 05:34 pm E 13 19------ 50.0- 36.0---
2024-05-18 05:24 pm E 16 22------ 50.2- 36.0---
2024-05-18 05:14 pm E 16 22------ 50.2- 36.0---
2024-05-18 05:04 pm E 14 22------ 50.5- 36.3---
2024-05-18 04:54 pm E 13 21------ 50.9- 36.1---
2024-05-18 04:44 pm E 15 21------ 51.4- 36.7---
2024-05-18 04:34 pmENE 6 11------ 51.6- 38.3---
2024-05-18 04:24 pmNNE 4 7------ 51.1- 38.5---
2024-05-18 04:14 pmNNE 5 7------ 50.9- 39.6---
2024-05-18 03:54 pmNNE 3 7------ 51.4- 38.7---